sensor_id;sensor_type;location;lat;lon;timestamp;temperature;humidity
35668;DHT22;22158;59.280;17.806;2023-12-07T00:00:17;-7.70;99.90
35668;DHT22;22158;59.280;17.806;2023-12-07T00:02:43;-7.70;99.90
35668;DHT22;22158;59.280;17.806;2023-12-07T00:05:09;-7.70;99.90
35668;DHT22;22158;59.280;17.806;2023-12-07T00:07:34;-7.70;99.90
35668;DHT22;22158;59.280;17.806;2023-12-07T00:10:00;-7.70;99.90
35668;DHT22;22158;59.280;17.806;2023-12-07T00:12:25;-7.70;99.90
35668;DHT22;22158;59.280;17.806;2023-12-07T00:14:51;-7.70;99.90
35668;DHT22;22158;59.280;17.806;2023-12-07T00:17:16;-7.70;99.90
35668;DHT22;22158;59.280;17.806;2023-12-07T00:19:42;-7.60;99.90
35668;DHT22;22158;59.280;17.806;2023-12-07T00:22:08;-7.50;99.90
35668;DHT22;22158;59.280;17.806;2023-12-07T00:24:33;-7.50;99.90
35668;DHT22;22158;59.280;17.806;2023-12-07T00:26:59;-7.50;99.90
35668;DHT22;22158;59.280;17.806;2023-12-07T00:29:24;-7.40;99.90
35668;DHT22;22158;59.280;17.806;2023-12-07T00:31:50;-7.40;99.90
35668;DHT22;22158;59.280;17.806;2023-12-07T00:34:17;-7.40;99.90
35668;DHT22;22158;59.280;17.806;2023-12-07T00:36:42;-7.40;99.90
35668;DHT22;22158;59.280;17.806;2023-12-07T00:39:08;-7.40;99.90
35668;DHT22;22158;59.280;17.806;2023-12-07T00:41:34;-7.40;99.90
35668;DHT22;22158;59.280;17.806;2023-12-07T00:44:00;-7.40;99.90
35668;DHT22;22158;59.280;17.806;2023-12-07T00:46:25;-7.30;99.90
35668;DHT22;22158;59.280;17.806;2023-12-07T00:48:51;-7.30;99.90
35668;DHT22;22158;59.280;17.806;2023-12-07T00:51:16;-7.30;99.90
35668;DHT22;22158;59.280;17.806;2023-12-07T00:53:42;-7.20;99.90
35668;DHT22;22158;59.280;17.806;2023-12-07T00:56:08;-7.20;99.90
35668;DHT22;22158;59.280;17.806;2023-12-07T00:58:33;-7.20;99.90
35668;DHT22;22158;59.280;17.806;2023-12-07T01:01:00;-7.10;99.90
35668;DHT22;22158;59.280;17.806;2023-12-07T01:03:25;-7.10;99.90
35668;DHT22;22158;59.280;17.806;2023-12-07T01:05:51;-7.10;99.90
35668;DHT22;22158;59.280;17.806;2023-12-07T01:08:16;-7.00;99.90
35668;DHT22;22158;59.280;17.806;2023-12-07T01:10:42;-7.00;99.90
35668;DHT22;22158;59.280;17.806;2023-12-07T01:13:08;-7.00;99.90
35668;DHT22;22158;59.280;17.806;2023-12-07T01:15:33;-7.00;99.90
35668;DHT22;22158;59.280;17.806;2023-12-07T01:17:59;-7.00;99.90
35668;DHT22;22158;59.280;17.806;2023-12-07T01:20:24;-6.90;99.90
35668;DHT22;22158;59.280;17.806;2023-12-07T01:22:50;-6.90;99.90
35668;DHT22;22158;59.280;17.806;2023-12-07T01:25:15;-6.80;99.90
35668;DHT22;22158;59.280;17.806;2023-12-07T01:27:46;-6.80;99.90
35668;DHT22;22158;59.280;17.806;2023-12-07T01:30:12;-6.80;99.90
35668;DHT22;22158;59.280;17.806;2023-12-07T01:32:38;-6.70;99.90
35668;DHT22;22158;59.280;17.806;2023-12-07T01:35:03;-6.70;99.90
35668;DHT22;22158;59.280;17.806;2023-12-07T01:37:29;-6.70;99.90
35668;DHT22;22158;59.280;17.806;2023-12-07T01:39:55;-6.70;99.90
35668;DHT22;22158;59.280;17.806;2023-12-07T01:42:21;-6.70;99.90
35668;DHT22;22158;59.280;17.806;2023-12-07T01:44:47;-6.60;99.90
35668;DHT22;22158;59.280;17.806;2023-12-07T01:47:12;-6.60;99.90
35668;DHT22;22158;59.280;17.806;2023-12-07T01:49:39;-6.60;99.90
35668;DHT22;22158;59.280;17.806;2023-12-07T01:52:05;-6.60;99.90
35668;DHT22;22158;59.280;17.806;2023-12-07T01:54:32;-6.50;99.90
35668;DHT22;22158;59.280;17.806;2023-12-07T01:56:58;-6.50;99.90
35668;DHT22;22158;59.280;17.806;2023-12-07T01:59:24;-6.50;99.90
35668;DHT22;22158;59.280;17.806;2023-12-07T02:01:50;-6.50;99.90
35668;DHT22;22158;59.280;17.806;2023-12-07T02:04:16;-6.40;99.90
35668;DHT22;22158;59.280;17.806;2023-12-07T02:06:42;-6.40;99.90
35668;DHT22;22158;59.280;17.806;2023-12-07T02:09:07;-6.40;99.90
35668;DHT22;22158;59.280;17.806;2023-12-07T02:11:34;-6.40;99.90
35668;DHT22;22158;59.280;17.806;2023-12-07T02:14:00;-6.40;99.90
35668;DHT22;22158;59.280;17.806;2023-12-07T02:16:38;-6.40;99.90
35668;DHT22;22158;59.280;17.806;2023-12-07T02:21:48;-6.40;99.90
35668;DHT22;22158;59.280;17.806;2023-12-07T02:24:21;-6.40;99.90
35668;DHT22;22158;59.280;17.806;2023-12-07T02:26:47;-6.40;99.90
35668;DHT22;22158;59.280;17.806;2023-12-07T02:29:13;-6.40;99.90
35668;DHT22;22158;59.280;17.806;2023-12-07T02:31:38;-6.40;99.90
35668;DHT22;22158;59.280;17.806;2023-12-07T02:34:04;-6.40;99.90
35668;DHT22;22158;59.280;17.806;2023-12-07T02:36:32;-6.40;99.90
35668;DHT22;22158;59.280;17.806;2023-12-07T02:38:59;-6.40;99.90
35668;DHT22;22158;59.280;17.806;2023-12-07T02:41:28;-6.50;99.90
35668;DHT22;22158;59.280;17.806;2023-12-07T02:43:56;-6.50;99.90
35668;DHT22;22158;59.280;17.806;2023-12-07T02:46:23;-6.50;99.90
35668;DHT22;22158;59.280;17.806;2023-12-07T02:48:49;-6.60;99.90
35668;DHT22;22158;59.280;17.806;2023-12-07T02:51:14;-6.60;99.90
35668;DHT22;22158;59.280;17.806;2023-12-07T02:53:40;-6.60;99.90
35668;DHT22;22158;59.280;17.806;2023-12-07T02:56:06;-6.60;99.90
35668;DHT22;22158;59.280;17.806;2023-12-07T02:58:32;-6.60;99.90
35668;DHT22;22158;59.280;17.806;2023-12-07T03:00:57;-6.60;99.90
35668;DHT22;22158;59.280;17.806;2023-12-07T03:03:24;-6.60;99.90
35668;DHT22;22158;59.280;17.806;2023-12-07T03:05:50;-6.60;99.90
35668;DHT22;22158;59.280;17.806;2023-12-07T03:08:15;-6.70;99.90
35668;DHT22;22158;59.280;17.806;2023-12-07T03:10:41;-6.70;99.90
35668;DHT22;22158;59.280;17.806;2023-12-07T03:13:07;-6.70;99.90
35668;DHT22;22158;59.280;17.806;2023-12-07T03:15:32;-6.80;99.90
35668;DHT22;22158;59.280;17.806;2023-12-07T03:17:58;-6.80;99.90
35668;DHT22;22158;59.280;17.806;2023-12-07T03:20:23;-6.80;99.90
35668;DHT22;22158;59.280;17.806;2023-12-07T03:22:49;-6.80;99.90
35668;DHT22;22158;59.280;17.806;2023-12-07T03:25:14;-6.80;99.90
35668;DHT22;22158;59.280;17.806;2023-12-07T03:27:40;-6.80;99.90
35668;DHT22;22158;59.280;17.806;2023-12-07T03:30:06;-6.80;99.90
35668;DHT22;22158;59.280;17.806;2023-12-07T03:32:32;-6.80;99.90
35668;DHT22;22158;59.280;17.806;2023-12-07T03:34:58;-6.80;99.90
35668;DHT22;22158;59.280;17.806;2023-12-07T03:37:23;-6.80;99.90
35668;DHT22;22158;59.280;17.806;2023-12-07T03:39:49;-6.80;99.90
35668;DHT22;22158;59.280;17.806;2023-12-07T03:42:15;-6.80;99.90
35668;DHT22;22158;59.280;17.806;2023-12-07T03:44:40;-6.70;99.90
35668;DHT22;22158;59.280;17.806;2023-12-07T03:47:06;-6.60;99.90
35668;DHT22;22158;59.280;17.806;2023-12-07T03:49:31;-6.60;99.90
35668;DHT22;22158;59.280;17.806;2023-12-07T03:51:57;-6.50;99.90
35668;DHT22;22158;59.280;17.806;2023-12-07T03:54:22;-6.50;99.90
35668;DHT22;22158;59.280;17.806;2023-12-07T03:56:48;-6.40;99.90
35668;DHT22;22158;59.280;17.806;2023-12-07T03:59:14;-6.40;99.90
35668;DHT22;22158;59.280;17.806;2023-12-07T04:01:40;-6.40;99.90
35668;DHT22;22158;59.280;17.806;2023-12-07T04:04:06;-6.30;99.90
35668;DHT22;22158;59.280;17.806;2023-12-07T04:06:31;-6.30;99.90
35668;DHT22;22158;59.280;17.806;2023-12-07T04:08:57;-6.30;99.90
35668;DHT22;22158;59.280;17.806;2023-12-07T04:11:22;-6.30;99.90
35668;DHT22;22158;59.280;17.806;2023-12-07T04:13:48;-6.30;99.90
35668;DHT22;22158;59.280;17.806;2023-12-07T04:16:14;-6.20;99.90
35668;DHT22;22158;59.280;17.806;2023-12-07T04:18:40;-6.20;99.90
35668;DHT22;22158;59.280;17.806;2023-12-07T04:21:05;-6.30;99.90
35668;DHT22;22158;59.280;17.806;2023-12-07T04:23:31;-6.20;99.90
35668;DHT22;22158;59.280;17.806;2023-12-07T04:25:57;-6.30;99.90
35668;DHT22;22158;59.280;17.806;2023-12-07T04:28:22;-6.30;99.90
35668;DHT22;22158;59.280;17.806;2023-12-07T04:30:48;-6.30;99.90
35668;DHT22;22158;59.280;17.806;2023-12-07T04:33:13;-6.30;99.90
35668;DHT22;22158;59.280;17.806;2023-12-07T04:35:39;-6.30;99.90
35668;DHT22;22158;59.280;17.806;2023-12-07T04:38:05;-6.30;99.90
35668;DHT22;22158;59.280;17.806;2023-12-07T04:40:30;-6.30;99.90
35668;DHT22;22158;59.280;17.806;2023-12-07T04:42:56;-6.20;99.90
35668;DHT22;22158;59.280;17.806;2023-12-07T04:45:21;-6.20;99.90
35668;DHT22;22158;59.280;17.806;2023-12-07T04:47:47;-6.10;99.90
35668;DHT22;22158;59.280;17.806;2023-12-07T04:50:13;-6.10;99.90
35668;DHT22;22158;59.280;17.806;2023-12-07T04:52:39;-6.10;99.90
35668;DHT22;22158;59.280;17.806;2023-12-07T04:55:05;-6.10;99.90
35668;DHT22;22158;59.280;17.806;2023-12-07T04:57:33;-6.00;99.90
35668;DHT22;22158;59.280;17.806;2023-12-07T04:59:58;-6.00;99.90
35668;DHT22;22158;59.280;17.806;2023-12-07T05:02:24;-6.00;99.90
35668;DHT22;22158;59.280;17.806;2023-12-07T05:04:50;-6.00;99.90
35668;DHT22;22158;59.280;17.806;2023-12-07T05:07:15;-5.90;99.90
35668;DHT22;22158;59.280;17.806;2023-12-07T05:09:41;-5.90;99.90
35668;DHT22;22158;59.280;17.806;2023-12-07T05:12:07;-5.90;99.90
35668;DHT22;22158;59.280;17.806;2023-12-07T05:14:32;-5.90;99.90
35668;DHT22;22158;59.280;17.806;2023-12-07T05:16:58;-5.80;99.90
35668;DHT22;22158;59.280;17.806;2023-12-07T05:19:24;-5.80;99.90
35668;DHT22;22158;59.280;17.806;2023-12-07T05:21:51;-5.80;99.90
35668;DHT22;22158;59.280;17.806;2023-12-07T05:24:17;-5.70;99.90
35668;DHT22;22158;59.280;17.806;2023-12-07T05:26:43;-5.70;99.90
35668;DHT22;22158;59.280;17.806;2023-12-07T05:29:09;-5.70;99.90
35668;DHT22;22158;59.280;17.806;2023-12-07T05:31:35;-5.60;99.90
35668;DHT22;22158;59.280;17.806;2023-12-07T05:34:01;-5.70;99.90
35668;DHT22;22158;59.280;17.806;2023-12-07T05:36:26;-5.70;99.90
35668;DHT22;22158;59.280;17.806;2023-12-07T05:38:52;-5.60;99.90
35668;DHT22;22158;59.280;17.806;2023-12-07T05:41:17;-5.60;99.90
35668;DHT22;22158;59.280;17.806;2023-12-07T05:43:43;-5.60;99.90
35668;DHT22;22158;59.280;17.806;2023-12-07T05:46:09;-5.60;99.90
35668;DHT22;22158;59.280;17.806;2023-12-07T05:48:34;-5.50;99.90
35668;DHT22;22158;59.280;17.806;2023-12-07T05:51:01;-5.50;99.90
35668;DHT22;22158;59.280;17.806;2023-12-07T05:53:27;-5.40;99.90
35668;DHT22;22158;59.280;17.806;2023-12-07T05:55:54;-5.40;99.90
35668;DHT22;22158;59.280;17.806;2023-12-07T05:58:19;-5.40;99.90
35668;DHT22;22158;59.280;17.806;2023-12-07T06:00:45;-5.30;99.90
35668;DHT22;22158;59.280;17.806;2023-12-07T06:03:12;-5.30;99.90
35668;DHT22;22158;59.280;17.806;2023-12-07T06:05:38;-5.30;99.90
35668;DHT22;22158;59.280;17.806;2023-12-07T06:08:04;-5.20;99.90
35668;DHT22;22158;59.280;17.806;2023-12-07T06:10:30;-5.30;99.90
35668;DHT22;22158;59.280;17.806;2023-12-07T06:12:56;-5.20;99.90
35668;DHT22;22158;59.280;17.806;2023-12-07T06:15:24;-5.20;99.90
35668;DHT22;22158;59.280;17.806;2023-12-07T06:17:49;-5.20;99.90
35668;DHT22;22158;59.280;17.806;2023-12-07T06:20:15;-5.20;99.90
35668;DHT22;22158;59.280;17.806;2023-12-07T06:22:41;-5.20;99.90
35668;DHT22;22158;59.280;17.806;2023-12-07T06:25:07;-5.20;99.90
35668;DHT22;22158;59.280;17.806;2023-12-07T06:27:34;-5.10;99.90
35668;DHT22;22158;59.280;17.806;2023-12-07T06:30:00;-5.10;99.90
35668;DHT22;22158;59.280;17.806;2023-12-07T06:32:26;-5.10;99.90
35668;DHT22;22158;59.280;17.806;2023-12-07T06:34:51;-5.00;99.90
35668;DHT22;22158;59.280;17.806;2023-12-07T06:37:17;-5.00;99.90
35668;DHT22;22158;59.280;17.806;2023-12-07T06:39:43;-5.00;99.90
35668;DHT22;22158;59.280;17.806;2023-12-07T06:42:08;-5.00;99.90
35668;DHT22;22158;59.280;17.806;2023-12-07T06:44:34;-5.00;99.90
35668;DHT22;22158;59.280;17.806;2023-12-07T06:47:00;-5.00;99.90
35668;DHT22;22158;59.280;17.806;2023-12-07T06:49:28;-4.90;99.90
35668;DHT22;22158;59.280;17.806;2023-12-07T06:51:54;-4.90;99.90
35668;DHT22;22158;59.280;17.806;2023-12-07T06:54:19;-4.90;99.90
35668;DHT22;22158;59.280;17.806;2023-12-07T06:56:45;-4.90;99.90
35668;DHT22;22158;59.280;17.806;2023-12-07T06:59:11;-4.80;99.90
35668;DHT22;22158;59.280;17.806;2023-12-07T07:01:37;-4.80;99.90
35668;DHT22;22158;59.280;17.806;2023-12-07T07:04:03;-4.80;99.90
35668;DHT22;22158;59.280;17.806;2023-12-07T07:06:29;-4.70;99.90
35668;DHT22;22158;59.280;17.806;2023-12-07T07:08:54;-4.70;99.90
35668;DHT22;22158;59.280;17.806;2023-12-07T07:11:20;-4.70;99.90
35668;DHT22;22158;59.280;17.806;2023-12-07T07:13:45;-4.70;99.90
35668;DHT22;22158;59.280;17.806;2023-12-07T07:16:11;-4.70;99.90
35668;DHT22;22158;59.280;17.806;2023-12-07T07:18:39;-4.70;99.90
35668;DHT22;22158;59.280;17.806;2023-12-07T07:21:06;-4.70;99.90
35668;DHT22;22158;59.280;17.806;2023-12-07T07:23:31;-4.60;99.90
35668;DHT22;22158;59.280;17.806;2023-12-07T07:25:57;-4.60;99.90
35668;DHT22;22158;59.280;17.806;2023-12-07T07:28:23;-4.60;99.90
35668;DHT22;22158;59.280;17.806;2023-12-07T07:30:48;-4.60;99.90
35668;DHT22;22158;59.280;17.806;2023-12-07T07:33:14;-4.60;99.90
35668;DHT22;22158;59.280;17.806;2023-12-07T07:35:39;-4.60;99.90
35668;DHT22;22158;59.280;17.806;2023-12-07T07:38:05;-4.50;99.90
35668;DHT22;22158;59.280;17.806;2023-12-07T07:40:30;-4.50;99.90
35668;DHT22;22158;59.280;17.806;2023-12-07T07:42:56;-4.50;99.90
35668;DHT22;22158;59.280;17.806;2023-12-07T07:45:21;-4.50;99.90
35668;DHT22;22158;59.280;17.806;2023-12-07T07:47:47;-4.40;99.90
35668;DHT22;22158;59.280;17.806;2023-12-07T07:50:13;-4.40;99.90
35668;DHT22;22158;59.280;17.806;2023-12-07T07:52:38;-4.40;99.90
35668;DHT22;22158;59.280;17.806;2023-12-07T07:55:05;-4.30;99.90
35668;DHT22;22158;59.280;17.806;2023-12-07T07:57:31;-4.30;99.90
35668;DHT22;22158;59.280;17.806;2023-12-07T07:59:57;-4.30;99.90
35668;DHT22;22158;59.280;17.806;2023-12-07T08:02:23;-4.30;99.90
35668;DHT22;22158;59.280;17.806;2023-12-07T08:04:49;-4.30;99.90
35668;DHT22;22158;59.280;17.806;2023-12-07T08:07:16;-4.20;99.90
35668;DHT22;22158;59.280;17.806;2023-12-07T08:09:42;-4.20;99.90
35668;DHT22;22158;59.280;17.806;2023-12-07T08:12:07;-4.20;99.90
35668;DHT22;22158;59.280;17.806;2023-12-07T08:14:35;-4.10;99.90
35668;DHT22;22158;59.280;17.806;2023-12-07T08:17:01;-4.10;99.90
35668;DHT22;22158;59.280;17.806;2023-12-07T08:19:26;-4.00;99.90
35668;DHT22;22158;59.280;17.806;2023-12-07T08:21:52;-4.00;99.90
35668;DHT22;22158;59.280;17.806;2023-12-07T08:24:18;-4.00;99.90
35668;DHT22;22158;59.280;17.806;2023-12-07T08:26:43;-4.00;99.90
35668;DHT22;22158;59.280;17.806;2023-12-07T08:29:09;-4.00;99.90
35668;DHT22;22158;59.280;17.806;2023-12-07T08:31:34;-4.00;99.90
35668;DHT22;22158;59.280;17.806;2023-12-07T08:34:00;-3.90;99.90
35668;DHT22;22158;59.280;17.806;2023-12-07T08:36:26;-3.90;99.90
35668;DHT22;22158;59.280;17.806;2023-12-07T08:38:51;-3.90;99.90
35668;DHT22;22158;59.280;17.806;2023-12-07T08:41:18;-3.80;99.90
35668;DHT22;22158;59.280;17.806;2023-12-07T08:43:43;-3.80;99.90
35668;DHT22;22158;59.280;17.806;2023-12-07T08:46:09;-3.80;99.90
35668;DHT22;22158;59.280;17.806;2023-12-07T08:48:36;-3.70;99.90
35668;DHT22;22158;59.280;17.806;2023-12-07T08:51:03;-3.70;99.90
35668;DHT22;22158;59.280;17.806;2023-12-07T08:53:29;-3.60;99.90
35668;DHT22;22158;59.280;17.806;2023-12-07T08:55:54;-3.60;99.90
35668;DHT22;22158;59.280;17.806;2023-12-07T08:58:20;-3.50;99.90
35668;DHT22;22158;59.280;17.806;2023-12-07T09:00:46;-3.50;99.90
35668;DHT22;22158;59.280;17.806;2023-12-07T09:03:12;-3.40;99.90
35668;DHT22;22158;59.280;17.806;2023-12-07T09:05:38;-3.40;99.90
35668;DHT22;22158;59.280;17.806;2023-12-07T09:08:04;-3.30;99.90
35668;DHT22;22158;59.280;17.806;2023-12-07T09:10:30;-3.30;99.90
35668;DHT22;22158;59.280;17.806;2023-12-07T09:12:55;-3.30;99.90
35668;DHT22;22158;59.280;17.806;2023-12-07T09:15:21;-3.30;99.90
35668;DHT22;22158;59.280;17.806;2023-12-07T09:17:47;-3.20;99.90
35668;DHT22;22158;59.280;17.806;2023-12-07T09:20:14;-3.20;99.90
35668;DHT22;22158;59.280;17.806;2023-12-07T09:22:44;-3.20;99.90
35668;DHT22;22158;59.280;17.806;2023-12-07T09:25:10;-3.20;99.90
35668;DHT22;22158;59.280;17.806;2023-12-07T09:27:37;-3.20;99.90
35668;DHT22;22158;59.280;17.806;2023-12-07T09:30:09;-3.20;99.90
35668;DHT22;22158;59.280;17.806;2023-12-07T09:32:42;-3.20;99.90
35668;DHT22;22158;59.280;17.806;2023-12-07T09:35:09;-3.10;99.90
35668;DHT22;22158;59.280;17.806;2023-12-07T09:37:44;-3.10;99.90
35668;DHT22;22158;59.280;17.806;2023-12-07T09:40:15;-3.10;99.90
35668;DHT22;22158;59.280;17.806;2023-12-07T09:42:41;-3.10;99.90
35668;DHT22;22158;59.280;17.806;2023-12-07T09:45:08;-3.00;99.90
35668;DHT22;22158;59.280;17.806;2023-12-07T09:47:34;-2.90;99.90
35668;DHT22;22158;59.280;17.806;2023-12-07T09:50:02;-2.90;99.90
35668;DHT22;22158;59.280;17.806;2023-12-07T09:52:28;-2.90;99.90
35668;DHT22;22158;59.280;17.806;2023-12-07T09:54:55;-2.90;99.90
35668;DHT22;22158;59.280;17.806;2023-12-07T09:57:22;-2.90;99.90
35668;DHT22;22158;59.280;17.806;2023-12-07T09:59:48;-2.90;99.90
35668;DHT22;22158;59.280;17.806;2023-12-07T10:02:14;-2.80;99.90
35668;DHT22;22158;59.280;17.806;2023-12-07T10:04:39;-2.80;99.90
35668;DHT22;22158;59.280;17.806;2023-12-07T10:07:05;-2.70;99.90
35668;DHT22;22158;59.280;17.806;2023-12-07T10:09:38;-2.70;99.90
35668;DHT22;22158;59.280;17.806;2023-12-07T10:12:04;-2.70;99.90
35668;DHT22;22158;59.280;17.806;2023-12-07T10:14:31;-2.60;99.90
35668;DHT22;22158;59.280;17.806;2023-12-07T10:16:57;-2.60;99.90
35668;DHT22;22158;59.280;17.806;2023-12-07T10:19:23;-2.60;99.90
35668;DHT22;22158;59.280;17.806;2023-12-07T10:21:50;-2.60;99.90
35668;DHT22;22158;59.280;17.806;2023-12-07T10:24:17;-2.50;99.90
35668;DHT22;22158;59.280;17.806;2023-12-07T10:26:44;-2.50;99.90
35668;DHT22;22158;59.280;17.806;2023-12-07T10:29:10;-2.50;99.90
35668;DHT22;22158;59.280;17.806;2023-12-07T10:31:39;-2.50;99.90
35668;DHT22;22158;59.280;17.806;2023-12-07T10:34:05;-2.50;99.90
35668;DHT22;22158;59.280;17.806;2023-12-07T10:36:31;-2.50;99.90
35668;DHT22;22158;59.280;17.806;2023-12-07T10:38:58;-2.40;99.90
35668;DHT22;22158;59.280;17.806;2023-12-07T10:41:24;-2.50;99.90
35668;DHT22;22158;59.280;17.806;2023-12-07T10:44:09;-2.50;99.90
35668;DHT22;22158;59.280;17.806;2023-12-07T10:46:37;-2.50;99.90
35668;DHT22;22158;59.280;17.806;2023-12-07T10:49:06;-2.50;99.90
35668;DHT22;22158;59.280;17.806;2023-12-07T10:51:42;-2.50;99.90
35668;DHT22;22158;59.280;17.806;2023-12-07T10:54:14;-2.50;99.90
35668;DHT22;22158;59.280;17.806;2023-12-07T10:56:45;-2.40;99.90
35668;DHT22;22158;59.280;17.806;2023-12-07T10:59:11;-2.40;99.90
35668;DHT22;22158;59.280;17.806;2023-12-07T11:01:42;-2.40;99.90
35668;DHT22;22158;59.280;17.806;2023-12-07T11:04:12;-2.30;99.90
35668;DHT22;22158;59.280;17.806;2023-12-07T11:06:42;-2.30;99.90
35668;DHT22;22158;59.280;17.806;2023-12-07T11:09:16;-2.30;99.90
35668;DHT22;22158;59.280;17.806;2023-12-07T11:14:15;-2.20;99.90
35668;DHT22;22158;59.280;17.806;2023-12-07T11:16:46;-2.20;99.90
35668;DHT22;22158;59.280;17.806;2023-12-07T11:19:43;-2.20;99.90
35668;DHT22;22158;59.280;17.806;2023-12-07T11:22:11;-2.20;99.90
35668;DHT22;22158;59.280;17.806;2023-12-07T11:24:37;-2.20;99.90
35668;DHT22;22158;59.280;17.806;2023-12-07T11:27:03;-2.10;99.90
35668;DHT22;22158;59.280;17.806;2023-12-07T11:29:29;-2.10;99.90
35668;DHT22;22158;59.280;17.806;2023-12-07T11:31:57;-2.10;99.90
35668;DHT22;22158;59.280;17.806;2023-12-07T11:34:39;-2.10;99.90
35668;DHT22;22158;59.280;17.806;2023-12-07T11:37:08;-2.00;99.90
35668;DHT22;22158;59.280;17.806;2023-12-07T11:39:41;-2.00;99.90
35668;DHT22;22158;59.280;17.806;2023-12-07T11:42:16;-2.00;99.90
35668;DHT22;22158;59.280;17.806;2023-12-07T11:44:43;-1.90;99.90
35668;DHT22;22158;59.280;17.806;2023-12-07T11:47:10;-1.90;99.90
35668;DHT22;22158;59.280;17.806;2023-12-07T11:49:42;-1.90;99.90
35668;DHT22;22158;59.280;17.806;2023-12-07T11:52:19;-2.00;99.90
35668;DHT22;22158;59.280;17.806;2023-12-07T11:54:49;-2.00;99.90
35668;DHT22;22158;59.280;17.806;2023-12-07T11:57:16;-2.00;99.90
35668;DHT22;22158;59.280;17.806;2023-12-07T11:59:43;-2.00;99.90
35668;DHT22;22158;59.280;17.806;2023-12-07T12:02:13;-1.90;99.90
35668;DHT22;22158;59.280;17.806;2023-12-07T12:04:42;-1.90;99.90
35668;DHT22;22158;59.280;17.806;2023-12-07T12:07:08;-1.80;99.90
35668;DHT22;22158;59.280;17.806;2023-12-07T12:09:33;-1.80;99.90
35668;DHT22;22158;59.280;17.806;2023-12-07T12:11:59;-1.80;99.90
35668;DHT22;22158;59.280;17.806;2023-12-07T12:14:26;-1.80;99.90
35668;DHT22;22158;59.280;17.806;2023-12-07T12:16:52;-1.70;99.90
35668;DHT22;22158;59.280;17.806;2023-12-07T12:19:19;-1.70;99.90
35668;DHT22;22158;59.280;17.806;2023-12-07T12:21:45;-1.70;99.90
35668;DHT22;22158;59.280;17.806;2023-12-07T12:24:11;-1.70;99.90
35668;DHT22;22158;59.280;17.806;2023-12-07T12:26:41;-1.70;99.90
35668;DHT22;22158;59.280;17.806;2023-12-07T12:29:07;-1.70;99.90
35668;DHT22;22158;59.280;17.806;2023-12-07T12:31:34;-1.70;99.90
35668;DHT22;22158;59.280;17.806;2023-12-07T12:34:01;-1.70;99.90
35668;DHT22;22158;59.280;17.806;2023-12-07T12:36:27;-1.70;99.90
35668;DHT22;22158;59.280;17.806;2023-12-07T12:38:53;-1.70;99.90
35668;DHT22;22158;59.280;17.806;2023-12-07T12:41:20;-1.70;99.90
35668;DHT22;22158;59.280;17.806;2023-12-07T12:43:46;-1.70;99.90
35668;DHT22;22158;59.280;17.806;2023-12-07T12:46:13;-1.70;99.90
35668;DHT22;22158;59.280;17.806;2023-12-07T12:48:55;-1.70;99.90
35668;DHT22;22158;59.280;17.806;2023-12-07T12:51:26;-1.70;99.90
35668;DHT22;22158;59.280;17.806;2023-12-07T12:53:52;-1.70;99.90
35668;DHT22;22158;59.280;17.806;2023-12-07T12:56:19;-1.70;99.90
35668;DHT22;22158;59.280;17.806;2023-12-07T12:58:49;-1.60;99.90
35668;DHT22;22158;59.280;17.806;2023-12-07T13:01:16;-1.60;99.90
35668;DHT22;22158;59.280;17.806;2023-12-07T13:03:46;-1.60;99.90
35668;DHT22;22158;59.280;17.806;2023-12-07T13:06:13;-1.50;99.90
35668;DHT22;22158;59.280;17.806;2023-12-07T13:08:43;-1.50;99.90
35668;DHT22;22158;59.280;17.806;2023-12-07T13:11:09;-1.50;99.90
35668;DHT22;22158;59.280;17.806;2023-12-07T13:13:35;-1.50;99.90
35668;DHT22;22158;59.280;17.806;2023-12-07T13:16:00;-1.40;99.90
35668;DHT22;22158;59.280;17.806;2023-12-07T13:18:26;-1.40;99.90
35668;DHT22;22158;59.280;17.806;2023-12-07T13:20:51;-1.40;99.90
35668;DHT22;22158;59.280;17.806;2023-12-07T13:23:17;-1.40;99.90
35668;DHT22;22158;59.280;17.806;2023-12-07T13:25:42;-1.30;99.90
35668;DHT22;22158;59.280;17.806;2023-12-07T13:28:08;-1.30;99.90
35668;DHT22;22158;59.280;17.806;2023-12-07T13:30:36;-1.40;99.90
35668;DHT22;22158;59.280;17.806;2023-12-07T13:33:02;-1.30;99.90
35668;DHT22;22158;59.280;17.806;2023-12-07T13:35:29;-1.40;99.90
35668;DHT22;22158;59.280;17.806;2023-12-07T13:37:55;-1.30;99.90
35668;DHT22;22158;59.280;17.806;2023-12-07T13:40:21;-1.40;99.90
35668;DHT22;22158;59.280;17.806;2023-12-07T13:42:46;-1.40;99.90
35668;DHT22;22158;59.280;17.806;2023-12-07T13:45:12;-1.30;99.90
35668;DHT22;22158;59.280;17.806;2023-12-07T13:47:37;-1.30;99.90
35668;DHT22;22158;59.280;17.806;2023-12-07T13:50:04;-1.30;99.90
35668;DHT22;22158;59.280;17.806;2023-12-07T13:52:31;-1.30;99.90
35668;DHT22;22158;59.280;17.806;2023-12-07T13:54:57;-1.30;99.90
35668;DHT22;22158;59.280;17.806;2023-12-07T13:57:23;-1.30;99.90
35668;DHT22;22158;59.280;17.806;2023-12-07T13:59:52;-1.30;99.90
35668;DHT22;22158;59.280;17.806;2023-12-07T14:02:19;-1.30;99.90
35668;DHT22;22158;59.280;17.806;2023-12-07T14:04:45;-1.30;99.90
35668;DHT22;22158;59.280;17.806;2023-12-07T14:07:15;-1.30;99.90
35668;DHT22;22158;59.280;17.806;2023-12-07T14:09:43;-1.30;99.90
35668;DHT22;22158;59.280;17.806;2023-12-07T14:12:09;-1.20;99.90
35668;DHT22;22158;59.280;17.806;2023-12-07T14:14:45;-1.20;99.90
35668;DHT22;22158;59.280;17.806;2023-12-07T14:17:12;-1.20;99.90
35668;DHT22;22158;59.280;17.806;2023-12-07T14:19:38;-1.20;99.90
35668;DHT22;22158;59.280;17.806;2023-12-07T14:22:16;-1.20;99.90
35668;DHT22;22158;59.280;17.806;2023-12-07T14:24:41;-1.10;99.90
35668;DHT22;22158;59.280;17.806;2023-12-07T14:27:07;-1.10;99.90
35668;DHT22;22158;59.280;17.806;2023-12-07T14:29:34;-1.10;99.90
35668;DHT22;22158;59.280;17.806;2023-12-07T14:32:00;-1.10;99.90
35668;DHT22;22158;59.280;17.806;2023-12-07T14:34:25;-1.10;99.90
35668;DHT22;22158;59.280;17.806;2023-12-07T14:36:52;-1.10;99.90
35668;DHT22;22158;59.280;17.806;2023-12-07T14:39:18;-1.20;99.90
35668;DHT22;22158;59.280;17.806;2023-12-07T14:41:45;-1.20;99.90
35668;DHT22;22158;59.280;17.806;2023-12-07T14:44:15;-1.20;99.90
35668;DHT22;22158;59.280;17.806;2023-12-07T14:46:42;-1.20;99.90
35668;DHT22;22158;59.280;17.806;2023-12-07T14:49:08;-1.10;99.90
35668;DHT22;22158;59.280;17.806;2023-12-07T14:51:34;-1.20;99.90
35668;DHT22;22158;59.280;17.806;2023-12-07T14:53:59;-1.10;99.90
35668;DHT22;22158;59.280;17.806;2023-12-07T14:56:25;-1.10;99.90
35668;DHT22;22158;59.280;17.806;2023-12-07T14:58:50;-1.10;99.90
35668;DHT22;22158;59.280;17.806;2023-12-07T15:01:16;-1.00;99.90
35668;DHT22;22158;59.280;17.806;2023-12-07T15:03:41;-1.00;99.90
35668;DHT22;22158;59.280;17.806;2023-12-07T15:06:07;-1.00;99.90
35668;DHT22;22158;59.280;17.806;2023-12-07T15:08:33;-0.90;99.90
35668;DHT22;22158;59.280;17.806;2023-12-07T15:10:59;-0.90;99.90
35668;DHT22;22158;59.280;17.806;2023-12-07T15:13:24;-0.90;99.90
35668;DHT22;22158;59.280;17.806;2023-12-07T15:15:50;-0.80;99.90